createdAt,value
2018-04-17T00:12:10.888Z,32.57
2018-04-17T00:14:38.425Z,31.47
2018-04-17T00:20:00.684Z,32.50
2018-04-17T00:22:28.988Z,32.57
2018-04-17T00:24:59.938Z,32.30
2018-04-17T00:27:27.500Z,32.53
2018-04-17T00:29:55.040Z,33.67
2018-04-17T00:32:22.602Z,34.07
2018-04-17T00:34:50.138Z,34.27
2018-04-17T00:37:17.666Z,35.83
2018-04-17T00:39:45.209Z,34.60
2018-04-17T00:42:12.734Z,38.57
2018-04-17T00:44:40.276Z,40.43
2018-04-17T00:47:08.680Z,40.07
2018-04-17T00:49:36.211Z,43.07
2018-04-17T00:52:06.851Z,46.13
2018-04-17T00:54:34.509Z,44.00
2018-04-17T00:57:02.804Z,43.87
2018-04-17T00:59:30.345Z,44.37
2018-04-17T01:01:59.242Z,43.23
2018-04-17T01:04:27.542Z,44.57
2018-04-17T01:06:55.080Z,41.53
2018-04-17T01:09:25.807Z,41.63
2018-04-17T01:11:53.412Z,39.00
2018-04-17T01:14:20.947Z,41.40
2018-04-17T01:16:49.239Z,38.53
2018-04-17T01:22:22.893Z,37.23
2018-04-17T02:25:16.682Z,30.80
2018-04-17T02:27:47.599Z,31.20
2018-04-17T02:30:15.129Z,31.27
2018-04-17T02:32:43.445Z,29.93
2018-04-17T02:35:10.995Z,28.60
2018-04-17T02:37:38.528Z,27.80
2018-04-17T02:40:06.836Z,26.20
2018-04-17T02:42:34.368Z,24.87
2018-04-17T02:45:01.931Z,24.57
2018-04-17T02:47:29.524Z,22.53
2018-04-17T02:49:57.548Z,19.47
2018-04-17T02:52:25.843Z,19.60
2018-04-17T02:54:59.220Z,16.70
2018-04-17T02:57:27.533Z,17.93
2018-04-17T02:59:55.083Z,17.57
2018-04-17T03:02:22.607Z,16.53
2018-04-17T03:04:50.144Z,16.13
2018-04-17T03:07:17.675Z,14.93
2018-04-17T03:09:45.211Z,14.03
2018-04-17T03:12:12.750Z,14.00
2018-04-17T03:14:40.295Z,14.53
2018-04-17T03:17:07.844Z,14.27
2018-04-17T03:19:35.385Z,12.63
2018-04-17T03:24:59.896Z,14.10
2018-04-17T03:27:27.466Z,13.90
2018-04-17T03:29:55.060Z,12.37
2018-04-17T03:32:22.639Z,12.40
2018-04-17T03:34:50.961Z,12.43
2018-04-17T03:37:19.304Z,12.17
2018-04-17T03:39:46.841Z,12.03
2018-04-17T03:42:14.364Z,12.37
2018-04-17T03:44:41.907Z,12.13
2018-04-17T03:47:09.451Z,11.23
2018-04-17T03:49:36.993Z,11.03
2018-04-17T03:52:05.305Z,12.07
2018-04-17T03:54:32.857Z,10.97
2018-04-17T03:57:03.669Z,12.43
2018-04-17T03:59:31.978Z,11.27
2018-04-17T04:01:59.523Z,11.90
2018-04-17T04:04:27.071Z,11.00
2018-04-17T04:06:54.674Z,11.77
2018-04-17T04:09:22.384Z,10.97
2018-04-17T04:11:49.933Z,11.50
2018-04-17T04:14:37.670Z,11.23
2018-04-17T04:17:17.611Z,11.50
2018-04-17T05:14:44.012Z,9.13
2018-04-17T05:17:11.558Z,9.70
2018-04-17T05:19:39.833Z,9.53
2018-04-17T05:22:10.550Z,9.47
2018-04-17T05:27:31.755Z,10.13
2018-04-17T05:29:59.294Z,10.40
2018-04-17T05:32:26.829Z,9.97
2018-04-17T05:34:54.378Z,10.30
2018-04-17T05:37:21.952Z,9.97
2018-04-17T05:39:49.495Z,10.00
2018-04-17T05:42:17.036Z,11.63
2018-04-17T05:44:44.570Z,10.07
2018-04-17T05:47:12.107Z,9.70
2018-04-17T05:49:39.634Z,9.57
2018-04-17T05:52:10.414Z,9.40
2018-04-17T05:54:37.947Z,8.83
2018-04-17T05:57:05.472Z,8.87
2018-04-17T05:59:33.013Z,9.17
2018-04-17T06:02:00.542Z,8.70
2018-04-17T06:04:28.076Z,8.13
2018-04-17T06:06:55.618Z,9.33
2018-04-17T06:09:23.146Z,8.47
2018-04-17T06:11:51.714Z,7.27
2018-04-17T06:23:14.935Z,6.83
2018-04-17T06:25:46.463Z,6.77
2018-04-17T06:28:14.007Z,6.53
2018-04-17T06:30:41.541Z,7.10
2018-04-17T06:33:09.136Z,6.43
2018-04-17T06:35:36.671Z,7.07
2018-04-17T06:38:04.218Z,7.00
2018-04-17T06:40:31.774Z,6.47
2018-04-17T06:43:00.291Z,6.70
2018-04-17T06:45:27.813Z,6.20
2018-04-17T06:47:55.358Z,5.80
2018-04-17T06:50:22.876Z,5.30
2018-04-17T06:52:53.829Z,5.60
2018-04-17T06:55:21.376Z,5.23
2018-04-17T06:57:48.918Z,4.70
2018-04-17T07:00:16.442Z,5.60
2018-04-17T07:02:44.747Z,5.10
2018-04-17T07:05:12.311Z,5.27
2018-04-17T07:07:40.617Z,5.07
2018-04-17T07:10:11.270Z,5.27
2018-04-17T07:12:38.804Z,4.67
2018-04-17T07:18:00.391Z,3.63
2018-04-17T07:20:28.684Z,3.73
2018-04-17T07:22:56.235Z,4.20
2018-04-17T07:25:23.792Z,4.10
2018-04-17T07:27:51.326Z,4.00
2018-04-17T07:30:21.965Z,4.67
2018-04-17T07:32:49.513Z,4.07
2018-04-17T07:35:17.059Z,4.03
2018-04-17T07:37:44.703Z,4.00
2018-04-17T07:40:12.247Z,3.70
2018-04-17T07:42:39.865Z,3.40
2018-04-17T07:45:07.447Z,3.27
2018-04-17T07:47:35.748Z,4.10
2018-04-17T07:50:03.288Z,3.20
2018-04-17T07:52:30.834Z,3.30
2018-04-17T07:54:59.126Z,3.27
2018-04-17T07:57:26.668Z,3.03
2018-04-17T07:59:57.415Z,2.47
2018-04-17T08:02:24.951Z,3.33
2018-04-17T08:04:52.485Z,3.37
2018-04-17T08:07:20.031Z,2.80
2018-04-17T08:09:47.575Z,2.63
2018-04-17T08:12:15.107Z,3.07
2018-04-17T09:12:39.064Z,4.13
2018-04-17T09:15:06.598Z,3.50
2018-04-17T09:23:32.696Z,3.87
2018-04-17T09:26:04.301Z,3.90
2018-04-17T09:28:31.865Z,4.83
2018-04-17T09:30:59.398Z,3.90
2018-04-17T09:33:27.631Z,3.80
2018-04-17T09:35:55.204Z,3.97
2018-04-17T09:38:22.715Z,4.70
2018-04-17T09:40:50.248Z,4.70
2018-04-17T09:43:17.798Z,3.93
2018-04-17T09:45:46.114Z,3.47
2018-04-17T09:48:13.674Z,4.13
2018-04-17T09:50:41.212Z,4.13
2018-04-17T09:53:08.743Z,4.10
2018-04-17T09:55:36.292Z,4.43
2018-04-17T09:58:06.985Z,4.83
2018-04-17T10:00:40.171Z,4.83
2018-04-17T10:03:08.481Z,5.23
2018-04-17T10:05:36.007Z,5.47
2018-04-17T10:08:03.547Z,6.07
2018-04-17T10:10:31.088Z,7.10
2018-04-17T10:12:59.426Z,7.03
2018-04-17T10:15:26.975Z,6.57
2018-04-17T10:17:54.529Z,7.33
2018-04-17T10:23:15.638Z,7.80
2018-04-17T10:25:46.453Z,7.77
2018-04-17T10:28:13.989Z,7.67
2018-04-17T10:30:41.528Z,8.77
2018-04-17T10:33:09.083Z,7.93
2018-04-17T10:35:36.620Z,8.47
2018-04-17T10:38:04.169Z,7.43
2018-04-17T10:40:31.724Z,7.17
2018-04-17T10:43:00.032Z,7.63
2018-04-17T10:45:27.601Z,8.80
2018-04-17T10:47:55.134Z,9.97
2018-04-17T10:50:22.676Z,9.10
2018-04-17T10:52:50.359Z,8.50
2018-04-17T10:55:21.051Z,8.03
2018-04-17T10:57:48.606Z,7.77
2018-04-17T11:00:16.154Z,8.17
2018-04-17T11:02:43.689Z,7.13
2018-04-17T11:05:11.254Z,7.33
2018-04-17T11:07:38.795Z,7.77
2018-04-17T11:10:06.324Z,6.33
2018-04-17T11:12:34.637Z,6.03
2018-04-17T14:43:22.906Z,6.50
2018-04-17T14:45:50.463Z,6.13
2018-04-17T14:48:18.788Z,6.17
2018-04-17T14:50:49.783Z,6.77
2018-04-17T14:53:17.323Z,6.37
2018-04-17T14:55:44.864Z,5.80
2018-04-17T14:58:12.401Z,6.70
2018-04-17T15:00:39.934Z,6.17
2018-04-17T15:03:07.471Z,5.93
2018-04-17T15:05:35.069Z,6.10
2018-04-17T15:08:05.680Z,6.33
2018-04-17T15:10:33.213Z,5.73
2018-04-17T15:13:13.516Z,6.17
2018-04-17T15:15:41.069Z,6.17
2018-04-17T15:18:09.333Z,5.47
2018-04-17T15:26:26.719Z,5.80
2018-04-17T15:28:54.252Z,5.10
2018-04-17T15:31:22.569Z,5.50
2018-04-17T15:33:50.095Z,5.83
2018-04-17T15:36:17.628Z,6.20
2018-04-17T15:38:45.171Z,5.47
2018-04-17T15:41:13.412Z,5.90
2018-04-17T15:43:40.951Z,5.10
2018-04-17T15:46:08.480Z,6.03
2018-04-17T15:48:39.299Z,5.60
2018-04-17T15:51:06.842Z,5.20
2018-04-17T15:53:34.514Z,5.07
2018-04-17T15:56:02.144Z,5.00
2018-04-17T15:58:29.686Z,5.63
2018-04-17T16:00:57.999Z,5.83
2018-04-17T16:03:25.606Z,5.73
2018-04-17T16:05:56.223Z,5.23
2018-04-17T16:08:23.782Z,5.47
2018-04-17T16:10:51.404Z,5.90
2018-04-17T16:13:19.005Z,5.07
2018-04-17T16:15:46.555Z,5.93
2018-04-17T16:18:14.118Z,5.40
2018-04-17T16:26:37.579Z,5.53
2018-04-17T16:29:05.120Z,5.27
2018-04-17T16:31:33.548Z,5.27
2018-04-17T16:34:01.079Z,4.93
2018-04-17T16:36:28.606Z,5.27
2018-04-17T16:38:56.142Z,5.37
2018-04-17T16:41:23.812Z,6.87
2018-04-17T16:43:51.358Z,6.07
2018-04-17T16:46:18.959Z,5.37
2018-04-17T16:48:47.581Z,5.23
2018-04-17T16:51:15.338Z,4.83
2018-04-17T16:53:45.038Z,5.13
2018-04-17T16:56:16.230Z,5.50
2018-04-17T16:58:43.979Z,5.47
2018-04-17T17:01:12.528Z,5.23
2018-04-17T17:03:40.839Z,4.87
2018-04-17T17:06:08.391Z,5.07
2018-04-17T17:08:35.970Z,4.50
2018-04-17T17:11:03.932Z,5.53
2018-04-17T17:25:05.988Z,5.23
2018-04-17T17:27:36.914Z,5.03
2018-04-17T17:30:04.463Z,5.00
2018-04-17T17:32:37.088Z,4.60
2018-04-17T17:48:00.080Z,5.30
2018-04-17T18:00:11.972Z,5.57
2018-04-17T18:18:28.121Z,5.50
2018-04-17T18:20:56.431Z,5.60
2018-04-17T18:23:23.963Z,5.27
2018-04-17T18:25:55.548Z,5.87
2018-04-17T18:28:23.102Z,6.23
2018-04-17T18:30:50.644Z,5.67
2018-04-17T18:33:18.200Z,6.33
2018-04-17T18:35:45.740Z,6.13
2018-04-17T18:38:14.079Z,5.73
2018-04-17T18:40:41.659Z,6.00
2018-04-17T18:43:09.200Z,6.67
2018-04-17T18:45:36.742Z,5.60
2018-04-17T18:48:04.308Z,5.80
2018-04-17T18:50:38.123Z,5.53
2018-04-17T18:53:05.716Z,5.67
2018-04-17T18:55:33.260Z,5.57
2018-04-17T18:58:00.823Z,5.87
2018-04-17T19:00:28.380Z,6.20
2018-04-17T19:02:55.936Z,6.53
2018-04-17T19:05:23.513Z,6.67
2018-04-17T19:07:54.129Z,5.90
2018-04-17T19:10:21.697Z,5.90
2018-04-17T19:12:49.253Z,5.97
2018-04-17T19:23:56.876Z,6.87
2018-04-17T20:15:34.036Z,9.30
2018-04-17T20:18:04.693Z,8.50
2018-04-17T20:20:33.051Z,9.23
2018-04-17T20:23:00.574Z,8.57
2018-04-17T20:25:28.111Z,8.20
2018-04-17T20:27:56.418Z,16.43
2018-04-17T20:30:23.950Z,10.43
2018-04-17T20:32:51.491Z,10.57
2018-04-17T20:35:23.003Z,11.27
2018-04-17T20:37:50.541Z,11.90
2018-04-17T20:40:18.929Z,11.10
2018-04-17T20:42:46.469Z,11.50
2018-04-17T20:45:14.017Z,11.17
2018-04-17T20:47:41.552Z,10.07
2018-04-17T20:50:09.104Z,10.73
2018-04-17T20:52:36.669Z,10.40
2018-04-17T20:55:07.336Z,9.37
2018-04-17T20:57:34.890Z,10.00
2018-04-17T21:00:03.192Z,9.43
2018-04-17T21:02:30.765Z,9.80
2018-04-17T21:04:58.302Z,9.67
2018-04-17T21:07:25.858Z,9.60
2018-04-17T21:09:53.396Z,9.77
2018-04-17T21:12:21.690Z,9.87
2018-04-17T21:14:50.051Z,8.47
2018-04-17T21:17:17.640Z,8.80
2018-04-17T22:15:08.277Z,8.00
2018-04-17T22:17:35.809Z,7.97
2018-04-17T22:23:08.870Z,7.97
2018-04-17T22:25:37.163Z,8.53
2018-04-17T22:28:04.701Z,7.77
2018-04-17T22:30:32.238Z,7.77
2018-04-17T22:32:59.943Z,8.00
2018-04-17T22:35:27.485Z,8.37
2018-04-17T22:37:55.048Z,8.13
2018-04-17T22:40:23.349Z,8.63
2018-04-17T22:42:50.912Z,7.63
2018-04-17T22:45:18.450Z,8.57
2018-04-17T22:47:46.839Z,8.30
2018-04-17T22:50:18.014Z,9.80
2018-04-17T22:52:45.549Z,8.93
2018-04-17T22:55:13.079Z,9.57
2018-04-17T22:57:41.386Z,10.13
2018-04-17T23:00:08.915Z,10.10
2018-04-17T23:02:37.230Z,9.47
2018-04-17T23:05:04.769Z,9.83
2018-04-17T23:07:35.376Z,9.37
2018-04-17T23:10:02.905Z,9.40
2018-04-17T23:12:30.430Z,9.27
2018-04-17T23:14:57.954Z,9.73
2018-04-17T23:17:25.491Z,9.70
2018-04-17T23:19:53.042Z,9.60
2018-04-17T23:22:20.570Z,9.20
2018-04-17T23:24:48.103Z,9.77
2018-04-17T23:27:19.598Z,9.90
2018-04-17T23:29:47.213Z,9.60
2018-04-17T23:32:15.522Z,9.30
2018-04-17T23:34:43.061Z,10.53
2018-04-17T23:37:11.369Z,9.50
2018-04-17T23:39:38.914Z,9.93
2018-04-17T23:42:06.455Z,10.37
2018-04-17T23:44:34.756Z,10.27
2018-04-17T23:47:02.295Z,9.67
2018-04-17T23:49:33.056Z,9.10
2018-04-17T23:52:00.592Z,9.23
2018-04-17T23:54:28.883Z,9.23
2018-04-17T23:56:56.418Z,9.33
2018-04-17T23:59:23.942Z,8.93
